sensor_id;sensor_type;location;lat;lon;timestamp;pressure;altitude;pressure_sealevel;temperature;humidity
53011;BME280;42803;55.762;38.084;2023-05-10T00:01:20;100560.41;;;6.10;63.13
53011;BME280;42803;55.762;38.084;2023-05-10T00:03:49;100567.44;;;6.12;63.10
53011;BME280;42803;55.762;38.084;2023-05-10T00:06:18;100559.81;;;6.13;63.19
53011;BME280;42803;55.762;38.084;2023-05-10T00:08:49;100559.81;;;6.13;63.28
53011;BME280;42803;55.762;38.084;2023-05-10T00:11:18;100557.06;;;6.12;64.03
53011;BME280;42803;55.762;38.084;2023-05-10T00:13:49;100557.97;;;6.12;64.26
53011;BME280;42803;55.762;38.084;2023-05-10T00:16:20;100566.84;;;6.14;63.67
53011;BME280;42803;55.762;38.084;2023-05-10T00:18:49;100566.59;;;6.20;63.34
53011;BME280;42803;55.762;38.084;2023-05-10T00:21:18;100562.50;;;6.22;63.36
53011;BME280;42803;55.762;38.084;2023-05-10T00:23:47;100558.97;;;6.21;63.91
53011;BME280;42803;55.762;38.084;2023-05-10T00:26:16;100555.13;;;6.18;64.69
53011;BME280;42803;55.762;38.084;2023-05-10T00:28:51;100561.84;;;6.16;64.48
53011;BME280;42803;55.762;38.084;2023-05-10T00:31:21;100569.25;;;6.13;65.74
53011;BME280;42803;55.762;38.084;2023-05-10T00:33:51;100563.72;;;6.09;66.58
53011;BME280;42803;55.762;38.084;2023-05-10T00:36:19;100571.00;;;6.05;66.95
53011;BME280;42803;55.762;38.084;2023-05-10T00:38:49;100567.91;;;6.00;68.32
53011;BME280;42803;55.762;38.084;2023-05-10T00:41:18;100579.59;;;5.97;70.54
53011;BME280;42803;55.762;38.084;2023-05-10T00:43:48;100571.47;;;5.94;72.93
53011;BME280;42803;55.762;38.084;2023-05-10T00:46:18;100570.00;;;5.89;73.22
53011;BME280;42803;55.762;38.084;2023-05-10T00:48:48;100571.31;;;5.92;72.32
53011;BME280;42803;55.762;38.084;2023-05-10T00:51:18;100576.75;;;6.02;70.78
53011;BME280;42803;55.762;38.084;2023-05-10T00:53:48;100573.09;;;6.00;72.32
53011;BME280;42803;55.762;38.084;2023-05-10T00:56:19;100577.09;;;6.05;71.65
53011;BME280;42803;55.762;38.084;2023-05-10T00:58:50;100572.56;;;6.19;68.00
53011;BME280;42803;55.762;38.084;2023-05-10T01:01:20;100563.81;;;6.41;64.74
53011;BME280;42803;55.762;38.084;2023-05-10T01:03:51;100565.50;;;6.56;64.44
53011;BME280;42803;55.762;38.084;2023-05-10T01:06:20;100556.34;;;6.60;65.38
53011;BME280;42803;55.762;38.084;2023-05-10T01:08:49;100565.50;;;6.56;66.31
53011;BME280;42803;55.762;38.084;2023-05-10T01:11:18;100563.38;;;6.45;68.18
53011;BME280;42803;55.762;38.084;2023-05-10T01:13:53;100558.44;;;6.40;69.26
53011;BME280;42803;55.762;38.084;2023-05-10T01:16:24;100566.06;;;6.38;69.50
53011;BME280;42803;55.762;38.084;2023-05-10T01:18:56;100562.69;;;6.39;68.89
53011;BME280;42803;55.762;38.084;2023-05-10T01:21:31;100558.69;;;6.34;70.61
53011;BME280;42803;55.762;38.084;2023-05-10T01:24:12;100561.78;;;6.23;72.20
53011;BME280;42803;55.762;38.084;2023-05-10T01:27:30;100558.84;;;6.20;71.93
53011;BME280;42803;55.762;38.084;2023-05-10T01:30:27;100559.41;;;6.33;69.30
53011;BME280;42803;55.762;38.084;2023-05-10T01:33:11;100556.19;;;6.43;68.05
53011;BME280;42803;55.762;38.084;2023-05-10T01:35:50;100553.94;;;6.46;69.07
53011;BME280;42803;55.762;38.084;2023-05-10T01:38:29;100560.94;;;6.31;72.44
53011;BME280;42803;55.762;38.084;2023-05-10T01:41:09;100551.41;;;6.23;71.29
53011;BME280;42803;55.762;38.084;2023-05-10T01:43:48;100557.09;;;6.43;67.48
53011;BME280;42803;55.762;38.084;2023-05-10T01:46:27;100542.63;;;6.61;65.44
53011;BME280;42803;55.762;38.084;2023-05-10T01:49:00;100544.66;;;6.79;63.34
53011;BME280;42803;55.762;38.084;2023-05-10T01:51:35;100546.88;;;6.92;62.25
53011;BME280;42803;55.762;38.084;2023-05-10T01:54:05;100544.09;;;7.06;61.14
53011;BME280;42803;55.762;38.084;2023-05-10T01:56:37;100544.00;;;7.14;60.61
53011;BME280;42803;55.762;38.084;2023-05-10T01:59:11;100542.81;;;7.19;61.20
53011;BME280;42803;55.762;38.084;2023-05-10T02:01:42;100547.09;;;7.18;60.29
53011;BME280;42803;55.762;38.084;2023-05-10T02:04:16;100547.66;;;7.16;61.16
53011;BME280;42803;55.762;38.084;2023-05-10T02:06:47;100547.19;;;7.11;61.71
53011;BME280;42803;55.762;38.084;2023-05-10T02:09:20;100546.06;;;7.09;61.79
53011;BME280;42803;55.762;38.084;2023-05-10T02:11:50;100549.34;;;7.15;61.02
53011;BME280;42803;55.762;38.084;2023-05-10T02:14:21;100545.84;;;7.15;63.20
53011;BME280;42803;55.762;38.084;2023-05-10T02:16:52;100548.53;;;7.07;64.25
53011;BME280;42803;55.762;38.084;2023-05-10T02:19:25;100552.41;;;6.95;65.08
53011;BME280;42803;55.762;38.084;2023-05-10T02:22:17;100546.19;;;6.86;65.19
53011;BME280;42803;55.762;38.084;2023-05-10T02:24:47;100542.53;;;6.84;64.11
53011;BME280;42803;55.762;38.084;2023-05-10T02:27:19;100544.72;;;6.88;64.08
53011;BME280;42803;55.762;38.084;2023-05-10T02:29:49;100539.84;;;6.91;64.16
53011;BME280;42803;55.762;38.084;2023-05-10T02:32:19;100542.03;;;6.95;64.71
53011;BME280;42803;55.762;38.084;2023-05-10T02:34:52;100540.59;;;7.06;64.27
53011;BME280;42803;55.762;38.084;2023-05-10T02:37:21;100537.94;;;7.22;62.76
53011;BME280;42803;55.762;38.084;2023-05-10T02:39:54;100532.94;;;7.32;63.05
53011;BME280;42803;55.762;38.084;2023-05-10T02:42:26;100534.81;;;7.33;64.46
53011;BME280;42803;55.762;38.084;2023-05-10T02:45:01;100535.97;;;7.28;65.97
53011;BME280;42803;55.762;38.084;2023-05-10T02:47:34;100525.94;;;7.31;66.49
53011;BME280;42803;55.762;38.084;2023-05-10T02:50:06;100530.69;;;7.35;67.60
53011;BME280;42803;55.762;38.084;2023-05-10T02:52:42;100525.97;;;7.40;67.40
53011;BME280;42803;55.762;38.084;2023-05-10T02:55:15;100531.38;;;7.50;66.54
53011;BME280;42803;55.762;38.084;2023-05-10T02:57:50;100533.00;;;7.65;64.43
53011;BME280;42803;55.762;38.084;2023-05-10T03:00:20;100526.31;;;7.76;63.88
53011;BME280;42803;55.762;38.084;2023-05-10T03:02:49;100525.91;;;7.89;63.25
53011;BME280;42803;55.762;38.084;2023-05-10T03:05:19;100524.72;;;7.94;64.62
53011;BME280;42803;55.762;38.084;2023-05-10T03:07:49;100531.59;;;7.93;66.51
53011;BME280;42803;55.762;38.084;2023-05-10T03:10:19;100527.59;;;7.88;68.03
53011;BME280;42803;55.762;38.084;2023-05-10T03:13:01;100538.59;;;7.86;68.10
53011;BME280;42803;55.762;38.084;2023-05-10T03:15:40;100520.56;;;7.87;68.94
53011;BME280;42803;55.762;38.084;2023-05-10T03:18:15;100525.78;;;7.87;70.01
53011;BME280;42803;55.762;38.084;2023-05-10T03:20:50;100525.78;;;7.87;70.60
53011;BME280;42803;55.762;38.084;2023-05-10T03:23:22;100526.09;;;7.90;70.47
53011;BME280;42803;55.762;38.084;2023-05-10T03:25:55;100520.91;;;7.99;70.81
53011;BME280;42803;55.762;38.084;2023-05-10T03:28:25;100517.88;;;8.03;71.15
53011;BME280;42803;55.762;38.084;2023-05-10T03:30:56;100520.34;;;8.10;70.96
53011;BME280;42803;55.762;38.084;2023-05-10T03:33:25;100526.19;;;8.25;70.93
53011;BME280;42803;55.762;38.084;2023-05-10T03:35:55;100523.75;;;8.35;71.59
53011;BME280;42803;55.762;38.084;2023-05-10T03:38:26;100520.59;;;8.46;71.33
53011;BME280;42803;55.762;38.084;2023-05-10T03:40:57;100517.72;;;8.61;71.11
53011;BME280;42803;55.762;38.084;2023-05-10T03:43:26;100515.88;;;8.77;70.08
53011;BME280;42803;55.762;38.084;2023-05-10T03:45:55;100521.25;;;8.87;69.99
53011;BME280;42803;55.762;38.084;2023-05-10T03:48:24;100516.50;;;9.00;65.79
53011;BME280;42803;55.762;38.084;2023-05-10T03:50:53;100527.69;;;9.08;63.80
53011;BME280;42803;55.762;38.084;2023-05-10T03:53:24;100523.50;;;9.19;65.06
53011;BME280;42803;55.762;38.084;2023-05-10T03:55:54;100517.38;;;9.36;65.46
53011;BME280;42803;55.762;38.084;2023-05-10T03:58:24;100522.09;;;9.48;65.77
53011;BME280;42803;55.762;38.084;2023-05-10T04:00:53;100513.00;;;9.53;65.96
53011;BME280;42803;55.762;38.084;2023-05-10T04:03:22;100518.22;;;9.62;66.82
53011;BME280;42803;55.762;38.084;2023-05-10T04:05:59;100513.75;;;9.70;64.79
53011;BME280;42803;55.762;38.084;2023-05-10T04:08:30;100514.78;;;9.81;64.00
53011;BME280;42803;55.762;38.084;2023-05-10T04:11:06;100522.09;;;9.93;63.83
53011;BME280;42803;55.762;38.084;2023-05-10T04:13:36;100510.09;;;10.04;63.33
53011;BME280;42803;55.762;38.084;2023-05-10T04:16:06;100507.56;;;10.14;62.07
53011;BME280;42803;55.762;38.084;2023-05-10T04:18:35;100512.44;;;10.29;60.43
53011;BME280;42803;55.762;38.084;2023-05-10T04:21:04;100509.84;;;10.47;60.08
53011;BME280;42803;55.762;38.084;2023-05-10T04:23:34;100509.16;;;10.59;59.72
53011;BME280;42803;55.762;38.084;2023-05-10T04:26:03;100513.47;;;10.77;59.36
53011;BME280;42803;55.762;38.084;2023-05-10T04:28:32;100509.66;;;10.92;58.16
53011;BME280;42803;55.762;38.084;2023-05-10T04:31:02;100505.63;;;11.15;57.13
53011;BME280;42803;55.762;38.084;2023-05-10T04:33:31;100500.34;;;11.34;55.80
53011;BME280;42803;55.762;38.084;2023-05-10T04:36:01;100497.94;;;11.56;54.93
53011;BME280;42803;55.762;38.084;2023-05-10T04:38:31;100488.31;;;11.75;54.40
53011;BME280;42803;55.762;38.084;2023-05-10T04:41:08;100496.91;;;11.93;53.10
53011;BME280;42803;55.762;38.084;2023-05-10T04:43:38;100486.09;;;12.19;52.52
53011;BME280;42803;55.762;38.084;2023-05-10T04:46:07;100491.59;;;12.32;52.00
53011;BME280;42803;55.762;38.084;2023-05-10T04:48:36;100493.19;;;12.40;50.86
53011;BME280;42803;55.762;38.084;2023-05-10T04:51:05;100491.09;;;12.57;50.88
53011;BME280;42803;55.762;38.084;2023-05-10T04:53:34;100489.50;;;12.79;50.37
53011;BME280;42803;55.762;38.084;2023-05-10T04:56:04;100492.06;;;13.00;50.65
53011;BME280;42803;55.762;38.084;2023-05-10T04:58:35;100481.03;;;13.24;49.99
53011;BME280;42803;55.762;38.084;2023-05-10T05:01:05;100487.38;;;13.38;48.66
53011;BME280;42803;55.762;38.084;2023-05-10T05:03:36;100484.25;;;13.64;46.53
53011;BME280;42803;55.762;38.084;2023-05-10T05:06:05;100486.53;;;13.81;45.35
53011;BME280;42803;55.762;38.084;2023-05-10T05:08:35;100486.72;;;13.95;45.48
53011;BME280;42803;55.762;38.084;2023-05-10T05:11:04;100487.81;;;14.08;44.67
53011;BME280;42803;55.762;38.084;2023-05-10T05:13:34;100489.06;;;14.35;45.16
53011;BME280;42803;55.762;38.084;2023-05-10T05:16:04;100480.97;;;14.44;43.54
53011;BME280;42803;55.762;38.084;2023-05-10T05:18:34;100485.28;;;14.54;42.96
53011;BME280;42803;55.762;38.084;2023-05-10T05:21:03;100479.91;;;14.64;42.78
53011;BME280;42803;55.762;38.084;2023-05-10T05:23:32;100477.50;;;14.67;42.15
53011;BME280;42803;55.762;38.084;2023-05-10T05:26:01;100474.31;;;14.71;41.74
53011;BME280;42803;55.762;38.084;2023-05-10T05:28:30;100471.38;;;14.45;41.79
53011;BME280;42803;55.762;38.084;2023-05-10T05:31:01;100472.41;;;14.47;41.70
53011;BME280;42803;55.762;38.084;2023-05-10T05:33:31;100474.56;;;14.74;41.14
53011;BME280;42803;55.762;38.084;2023-05-10T05:36:00;100470.00;;;14.95;40.85
53011;BME280;42803;55.762;38.084;2023-05-10T05:38:30;100459.72;;;14.98;40.10
53011;BME280;42803;55.762;38.084;2023-05-10T05:40:59;100466.91;;;15.01;39.19
53011;BME280;42803;55.762;38.084;2023-05-10T05:43:29;100467.81;;;15.36;39.76
53011;BME280;42803;55.762;38.084;2023-05-10T05:45:58;100466.97;;;15.61;39.21
53011;BME280;42803;55.762;38.084;2023-05-10T05:48:29;100470.16;;;15.80;38.44
53011;BME280;42803;55.762;38.084;2023-05-10T05:50:58;100465.31;;;15.87;38.64
53011;BME280;42803;55.762;38.084;2023-05-10T05:53:27;100461.22;;;16.15;38.33
53011;BME280;42803;55.762;38.084;2023-05-10T05:55:58;100461.03;;;16.25;38.14
53011;BME280;42803;55.762;38.084;2023-05-10T05:58:27;100457.78;;;16.41;37.57
53011;BME280;42803;55.762;38.084;2023-05-10T06:00:56;100459.72;;;16.57;37.32
53011;BME280;42803;55.762;38.084;2023-05-10T06:03:25;100455.28;;;16.56;37.38
53011;BME280;42803;55.762;38.084;2023-05-10T06:05:56;100450.22;;;16.72;37.55
53011;BME280;42803;55.762;38.084;2023-05-10T06:08:25;100451.44;;;16.64;36.97
53011;BME280;42803;55.762;38.084;2023-05-10T06:10:54;100451.00;;;16.58;37.13
53011;BME280;42803;55.762;38.084;2023-05-10T06:13:23;100444.06;;;16.72;35.92
53011;BME280;42803;55.762;38.084;2023-05-10T06:15:52;100450.38;;;16.49;35.28
53011;BME280;42803;55.762;38.084;2023-05-10T06:18:22;100445.81;;;16.60;35.30
53011;BME280;42803;55.762;38.084;2023-05-10T06:20:51;100447.59;;;16.72;35.63
53011;BME280;42803;55.762;38.084;2023-05-10T06:23:21;100447.16;;;16.91;35.43
53011;BME280;42803;55.762;38.084;2023-05-10T06:25:51;100448.75;;;17.16;34.18
53011;BME280;42803;55.762;38.084;2023-05-10T06:28:20;100444.91;;;17.37;34.80
53011;BME280;42803;55.762;38.084;2023-05-10T06:30:49;100441.28;;;17.76;33.66
53011;BME280;42803;55.762;38.084;2023-05-10T06:33:19;100436.59;;;18.14;33.15
53011;BME280;42803;55.762;38.084;2023-05-10T06:35:48;100441.63;;;18.39;33.72
53011;BME280;42803;55.762;38.084;2023-05-10T06:38:17;100440.53;;;18.35;32.80
53011;BME280;42803;55.762;38.084;2023-05-10T06:40:48;100448.19;;;18.31;33.02
53011;BME280;42803;55.762;38.084;2023-05-10T06:43:17;100425.72;;;18.52;32.45
53011;BME280;42803;55.762;38.084;2023-05-10T06:45:46;100439.38;;;18.45;31.47
53011;BME280;42803;55.762;38.084;2023-05-10T06:48:16;100436.72;;;18.30;32.22
53011;BME280;42803;55.762;38.084;2023-05-10T06:50:46;100435.41;;;18.23;32.58
53011;BME280;42803;55.762;38.084;2023-05-10T06:53:15;100432.72;;;18.37;31.52
53011;BME280;42803;55.762;38.084;2023-05-10T06:55:44;100430.53;;;18.44;30.84
53011;BME280;42803;55.762;38.084;2023-05-10T06:58:15;100438.38;;;18.28;31.71
53011;BME280;42803;55.762;38.084;2023-05-10T07:00:44;100434.97;;;18.31;31.27
53011;BME280;42803;55.762;38.084;2023-05-10T07:03:14;100431.00;;;18.67;30.99
53011;BME280;42803;55.762;38.084;2023-05-10T07:05:44;100427.22;;;19.22;30.62
53011;BME280;42803;55.762;38.084;2023-05-10T07:08:13;100428.97;;;19.53;30.24
53011;BME280;42803;55.762;38.084;2023-05-10T07:10:42;100419.84;;;19.48;30.36
53011;BME280;42803;55.762;38.084;2023-05-10T07:13:11;100420.28;;;19.87;29.74
53011;BME280;42803;55.762;38.084;2023-05-10T07:15:41;100422.19;;;19.89;28.98
53011;BME280;42803;55.762;38.084;2023-05-10T07:18:11;100426.16;;;19.81;29.11
53011;BME280;42803;55.762;38.084;2023-05-10T07:20:40;100425.84;;;19.60;29.41
53011;BME280;42803;55.762;38.084;2023-05-10T07:23:09;100415.91;;;19.56;28.71
53011;BME280;42803;55.762;38.084;2023-05-10T07:25:38;100409.66;;;20.03;28.45
53011;BME280;42803;55.762;38.084;2023-05-10T07:28:07;100414.63;;;20.46;27.89
53011;BME280;42803;55.762;38.084;2023-05-10T07:30:36;100411.84;;;20.27;27.15
53011;BME280;42803;55.762;38.084;2023-05-10T07:33:07;100412.97;;;19.99;27.40
53011;BME280;42803;55.762;38.084;2023-05-10T07:35:37;100411.81;;;20.10;27.29
53011;BME280;42803;55.762;38.084;2023-05-10T07:38:06;100412.41;;;20.05;28.89
53011;BME280;42803;55.762;38.084;2023-05-10T07:40:35;100410.72;;;19.58;28.86
53011;BME280;42803;55.762;38.084;2023-05-10T07:43:04;100420.28;;;18.93;28.96
53011;BME280;42803;55.762;38.084;2023-05-10T07:45:34;100415.94;;;18.66;29.51
53011;BME280;42803;55.762;38.084;2023-05-10T07:48:03;100408.53;;;18.31;28.50
53011;BME280;42803;55.762;38.084;2023-05-10T07:50:34;100415.84;;;18.35;29.55
53011;BME280;42803;55.762;38.084;2023-05-10T07:53:03;100414.03;;;17.91;28.78
53011;BME280;42803;55.762;38.084;2023-05-10T07:55:33;100410.31;;;17.33;30.69
53011;BME280;42803;55.762;38.084;2023-05-10T07:58:02;100406.88;;;17.07;31.94
53011;BME280;42803;55.762;38.084;2023-05-10T08:00:36;100406.66;;;16.77;31.96
53011;BME280;42803;55.762;38.084;2023-05-10T08:03:07;100402.38;;;16.28;31.07
53011;BME280;42803;55.762;38.084;2023-05-10T08:05:39;100401.53;;;15.91;31.64
53011;BME280;42803;55.762;38.084;2023-05-10T08:08:08;100397.44;;;16.32;31.91
53011;BME280;42803;55.762;38.084;2023-05-10T08:10:38;100396.53;;;16.84;31.79
53011;BME280;42803;55.762;38.084;2023-05-10T08:13:07;100397.53;;;17.12;31.11
53011;BME280;42803;55.762;38.084;2023-05-10T08:15:37;100398.34;;;17.11;30.76
53011;BME280;42803;55.762;38.084;2023-05-10T08:18:06;100393.69;;;16.80;30.62
53011;BME280;42803;55.762;38.084;2023-05-10T08:20:35;100395.91;;;16.74;30.67
53011;BME280;42803;55.762;38.084;2023-05-10T08:23:06;100387.84;;;16.46;30.55
53011;BME280;42803;55.762;38.084;2023-05-10T08:25:35;100389.56;;;16.59;30.77
53011;BME280;42803;55.762;38.084;2023-05-10T08:28:04;100385.47;;;16.76;30.95
53011;BME280;42803;55.762;38.084;2023-05-10T08:30:36;100377.94;;;16.82;30.34
53011;BME280;42803;55.762;38.084;2023-05-10T08:33:06;100380.47;;;17.20;30.05
53011;BME280;42803;55.762;38.084;2023-05-10T08:35:35;100371.28;;;17.70;29.13
53011;BME280;42803;55.762;38.084;2023-05-10T08:38:05;100368.59;;;18.11;28.28
53011;BME280;42803;55.762;38.084;2023-05-10T08:40:35;100364.59;;;18.03;28.55
53011;BME280;42803;55.762;38.084;2023-05-10T08:43:08;100369.19;;;17.64;29.16
53011;BME280;42803;55.762;38.084;2023-05-10T08:45:39;100372.13;;;17.27;29.47
53011;BME280;42803;55.762;38.084;2023-05-10T08:48:11;100370.66;;;16.91;30.17
53011;BME280;42803;55.762;38.084;2023-05-10T08:50:41;100365.09;;;16.87;30.69
53011;BME280;42803;55.762;38.084;2023-05-10T08:53:13;100359.06;;;17.16;30.36
53011;BME280;42803;55.762;38.084;2023-05-10T08:55:43;100365.59;;;17.49;29.27
53011;BME280;42803;55.762;38.084;2023-05-10T08:58:14;100363.22;;;17.67;29.26
53011;BME280;42803;55.762;38.084;2023-05-10T09:00:43;100356.81;;;17.63;29.20
53011;BME280;42803;55.762;38.084;2023-05-10T09:03:13;100357.59;;;18.33;29.16
53011;BME280;42803;55.762;38.084;2023-05-10T09:05:42;100361.03;;;18.02;28.37
53011;BME280;42803;55.762;38.084;2023-05-10T09:08:14;100356.97;;;17.80;28.91
53011;BME280;42803;55.762;38.084;2023-05-10T09:10:44;100350.84;;;17.94;29.41
53011;BME280;42803;55.762;38.084;2023-05-10T09:13:15;100344.28;;;18.91;28.96
53011;BME280;42803;55.762;38.084;2023-05-10T09:15:46;100342.00;;;18.97;28.03
53011;BME280;42803;55.762;38.084;2023-05-10T09:18:15;100335.47;;;19.07;28.07
53011;BME280;42803;55.762;38.084;2023-05-10T09:20:45;100337.38;;;19.09;28.10
53011;BME280;42803;55.762;38.084;2023-05-10T09:23:15;100334.25;;;19.80;28.65
53011;BME280;42803;55.762;38.084;2023-05-10T09:25:45;100330.69;;;19.63;28.25
53011;BME280;42803;55.762;38.084;2023-05-10T09:28:15;100323.22;;;19.56;27.96
53011;BME280;42803;55.762;38.084;2023-05-10T09:30:52;100323.16;;;19.71;27.91
53011;BME280;42803;55.762;38.084;2023-05-10T09:33:25;100333.19;;;19.29;27.89
53011;BME280;42803;55.762;38.084;2023-05-10T09:35:54;100327.75;;;18.95;28.34
53011;BME280;42803;55.762;38.084;2023-05-10T09:38:25;100327.69;;;18.79;28.43
53011;BME280;42803;55.762;38.084;2023-05-10T09:40:54;100331.00;;;18.74;28.57
53011;BME280;42803;55.762;38.084;2023-05-10T09:43:24;100327.50;;;18.46;28.79
53011;BME280;42803;55.762;38.084;2023-05-10T09:45:55;100318.97;;;18.20;28.89
53011;BME280;42803;55.762;38.084;2023-05-10T09:48:24;100323.06;;;18.30;28.85
53011;BME280;42803;55.762;38.084;2023-05-10T09:50:56;100322.59;;;18.08;28.37
53011;BME280;42803;55.762;38.084;2023-05-10T09:53:27;100318.06;;;18.05;28.87
53011;BME280;42803;55.762;38.084;2023-05-10T09:55:56;100309.44;;;18.68;28.00
53011;BME280;42803;55.762;38.084;2023-05-10T09:58:26;100307.38;;;18.78;28.20
53011;BME280;42803;55.762;38.084;2023-05-10T10:00:55;100312.94;;;18.52;27.79
53011;BME280;42803;55.762;38.084;2023-05-10T10:03:25;100308.47;;;18.51;28.42
53011;BME280;42803;55.762;38.084;2023-05-10T10:05:57;100317.50;;;18.11;28.44
53011;BME280;42803;55.762;38.084;2023-05-10T10:08:28;100294.34;;;18.07;28.13
53011;BME280;42803;55.762;38.084;2023-05-10T10:10:57;100293.19;;;18.16;28.27
53011;BME280;42803;55.762;38.084;2023-05-10T10:13:28;100288.03;;;18.49;28.39
53011;BME280;42803;55.762;38.084;2023-05-10T10:16:03;100285.78;;;19.17;28.61
53011;BME280;42803;55.762;38.084;2023-05-10T10:18:33;100278.28;;;19.58;28.04
53011;BME280;42803;55.762;38.084;2023-05-10T10:21:07;100277.81;;;19.81;27.19
53011;BME280;42803;55.762;38.084;2023-05-10T10:28:59;100272.91;;;20.41;27.50
53011;BME280;42803;55.762;38.084;2023-05-10T10:31:36;100272.00;;;20.40;27.20
53011;BME280;42803;55.762;38.084;2023-05-10T10:34:08;100262.34;;;20.25;27.35
53011;BME280;42803;55.762;38.084;2023-05-10T10:36:43;100265.63;;;19.52;27.33
53011;BME280;42803;55.762;38.084;2023-05-10T10:39:15;100263.31;;;19.75;27.57
53011;BME280;42803;55.762;38.084;2023-05-10T10:41:50;100266.81;;;20.26;27.44
53011;BME280;42803;55.762;38.084;2023-05-10T10:44:26;100264.63;;;20.69;26.94
53011;BME280;42803;55.762;38.084;2023-05-10T10:50:02;100261.16;;;21.07;26.81
53011;BME280;42803;55.762;38.084;2023-05-10T10:52:34;100251.19;;;21.40;26.23
53011;BME280;42803;55.762;38.084;2023-05-10T10:55:05;100250.72;;;21.49;26.14
53011;BME280;42803;55.762;38.084;2023-05-10T10:57:46;100250.50;;;22.04;26.13
53011;BME280;42803;55.762;38.084;2023-05-10T11:00:28;100245.66;;;21.75;25.86
53011;BME280;42803;55.762;38.084;2023-05-10T11:03:01;100253.38;;;21.49;26.69
53011;BME280;42803;55.762;38.084;2023-05-10T11:05:38;100245.69;;;21.36;26.46
53011;BME280;42803;55.762;38.084;2023-05-10T11:08:13;100247.06;;;21.47;26.53
53011;BME280;42803;55.762;38.084;2023-05-10T11:10:52;100245.06;;;21.41;26.47
53011;BME280;42803;55.762;38.084;2023-05-10T11:13:29;100243.16;;;21.39;26.70
53011;BME280;42803;55.762;38.084;2023-05-10T11:16:10;100245.63;;;21.16;26.93
53011;BME280;42803;55.762;38.084;2023-05-10T11:18:41;100240.31;;;21.16;26.11
53011;BME280;42803;55.762;38.084;2023-05-10T11:21:21;100240.78;;;20.88;26.44
53011;BME280;42803;55.762;38.084;2023-05-10T11:23:53;100240.44;;;20.63;27.41
53011;BME280;42803;55.762;38.084;2023-05-10T11:26:29;100225.47;;;20.83;27.00
53011;BME280;42803;55.762;38.084;2023-05-10T11:28:59;100228.94;;;21.00;26.72
53011;BME280;42803;55.762;38.084;2023-05-10T11:31:31;100226.38;;;20.30;26.64
53011;BME280;42803;55.762;38.084;2023-05-10T11:34:01;100229.72;;;19.91;27.55
53011;BME280;42803;55.762;38.084;2023-05-10T11:36:33;100228.38;;;19.82;27.70
53011;BME280;42803;55.762;38.084;2023-05-10T11:39:04;100218.63;;;19.99;27.47
53011;BME280;42803;55.762;38.084;2023-05-10T11:41:34;100227.97;;;20.08;27.68
53011;BME280;42803;55.762;38.084;2023-05-10T11:44:03;100221.22;;;20.33;27.49
53011;BME280;42803;55.762;38.084;2023-05-10T11:46:34;100215.34;;;20.56;27.30
53011;BME280;42803;55.762;38.084;2023-05-10T11:49:06;100223.97;;;20.52;27.28
53011;BME280;42803;55.762;38.084;2023-05-10T11:51:36;100210.72;;;20.34;27.42
53011;BME280;42803;55.762;38.084;2023-05-10T11:54:08;100219.41;;;20.32;26.91
53011;BME280;42803;55.762;38.084;2023-05-10T11:56:39;100208.00;;;19.81;27.11
53011;BME280;42803;55.762;38.084;2023-05-10T11:59:08;100209.50;;;19.76;27.52
53011;BME280;42803;55.762;38.084;2023-05-10T12:01:39;100209.19;;;19.69;27.89
53011;BME280;42803;55.762;38.084;2023-05-10T12:04:09;100203.97;;;19.55;27.83
53011;BME280;42803;55.762;38.084;2023-05-10T12:06:40;100202.16;;;19.54;28.63
53011;BME280;42803;55.762;38.084;2023-05-10T12:09:09;100200.25;;;19.67;28.13
53011;BME280;42803;55.762;38.084;2023-05-10T12:11:40;100199.91;;;19.61;28.26
53011;BME280;42803;55.762;38.084;2023-05-10T12:14:11;100198.59;;;19.37;28.66
53011;BME280;42803;55.762;38.084;2023-05-10T12:16:43;100199.44;;;18.87;28.92
53011;BME280;42803;55.762;38.084;2023-05-10T12:19:18;100193.97;;;19.00;28.91
53011;BME280;42803;55.762;38.084;2023-05-10T12:21:48;100186.63;;;18.94;28.69
53011;BME280;42803;55.762;38.084;2023-05-10T12:24:18;100184.75;;;19.08;29.04
53011;BME280;42803;55.762;38.084;2023-05-10T12:26:50;100186.47;;;19.24;28.77
53011;BME280;42803;55.762;38.084;2023-05-10T12:29:36;100185.03;;;19.47;28.79
53011;BME280;42803;55.762;38.084;2023-05-10T12:32:10;100175.28;;;19.30;28.66
53011;BME280;42803;55.762;38.084;2023-05-10T12:34:40;100174.72;;;19.35;28.48
53011;BME280;42803;55.762;38.084;2023-05-10T12:37:09;100175.00;;;19.41;28.70
53011;BME280;42803;55.762;38.084;2023-05-10T12:39:39;100176.03;;;19.27;28.90
53011;BME280;42803;55.762;38.084;2023-05-10T12:42:09;100172.72;;;19.15;29.17
53011;BME280;42803;55.762;38.084;2023-05-10T12:44:39;100169.09;;;18.96;28.90
53011;BME280;42803;55.762;38.084;2023-05-10T12:47:10;100173.47;;;18.96;29.43
53011;BME280;42803;55.762;38.084;2023-05-10T12:49:46;100175.44;;;19.00;29.83
53011;BME280;42803;55.762;38.084;2023-05-10T12:52:15;100173.63;;;19.15;29.13
53011;BME280;42803;55.762;38.084;2023-05-10T12:54:45;100176.94;;;19.28;29.06
53011;BME280;42803;55.762;38.084;2023-05-10T12:57:14;100176.78;;;19.08;29.24
53011;BME280;42803;55.762;38.084;2023-05-10T12:59:44;100177.88;;;18.33;29.72
53011;BME280;42803;55.762;38.084;2023-05-10T13:02:14;100170.75;;;18.47;29.83
53011;BME280;42803;55.762;38.084;2023-05-10T13:04:45;100173.41;;;18.63;30.04
53011;BME280;42803;55.762;38.084;2023-05-10T13:07:17;100166.34;;;18.95;29.90
53011;BME280;42803;55.762;38.084;2023-05-10T13:09:48;100160.59;;;18.86;29.99
53011;BME280;42803;55.762;38.084;2023-05-10T13:12:17;100168.13;;;18.63;29.99